sensor_id;sensor_type;location;lat;lon;timestamp;temperature;humidity
6627;DHT22;3349;49.830;8.748;2023-07-22T00:00:34;16.70;73.40
6627;DHT22;3349;49.830;8.748;2023-07-22T00:03:01;16.60;74.00
6627;DHT22;3349;49.830;8.748;2023-07-22T00:05:28;16.70;74.30
6627;DHT22;3349;49.830;8.748;2023-07-22T00:07:55;16.70;74.40
6627;DHT22;3349;49.830;8.748;2023-07-22T00:10:23;16.60;74.70
6627;DHT22;3349;49.830;8.748;2023-07-22T00:12:50;16.60;74.90
6627;DHT22;3349;49.830;8.748;2023-07-22T00:15:16;16.60;74.20
6627;DHT22;3349;49.830;8.748;2023-07-22T00:17:43;16.50;74.60
6627;DHT22;3349;49.830;8.748;2023-07-22T00:20:10;16.50;76.20
6627;DHT22;3349;49.830;8.748;2023-07-22T00:22:37;16.40;75.40
6627;DHT22;3349;49.830;8.748;2023-07-22T00:25:06;16.30;75.40
6627;DHT22;3349;49.830;8.748;2023-07-22T00:27:34;16.30;75.90
6627;DHT22;3349;49.830;8.748;2023-07-22T00:30:01;16.30;75.90
6627;DHT22;3349;49.830;8.748;2023-07-22T00:32:28;16.30;77.70
6627;DHT22;3349;49.830;8.748;2023-07-22T00:34:55;16.40;77.10
6627;DHT22;3349;49.830;8.748;2023-07-22T00:37:22;16.40;77.70
6627;DHT22;3349;49.830;8.748;2023-07-22T00:39:48;16.40;78.00
6627;DHT22;3349;49.830;8.748;2023-07-22T00:42:16;16.40;77.40
6627;DHT22;3349;49.830;8.748;2023-07-22T00:44:44;16.40;77.70
6627;DHT22;3349;49.830;8.748;2023-07-22T00:47:10;16.40;78.80
6627;DHT22;3349;49.830;8.748;2023-07-22T00:49:38;16.40;78.10
6627;DHT22;3349;49.830;8.748;2023-07-22T00:52:05;16.30;78.40
6627;DHT22;3349;49.830;8.748;2023-07-22T00:54:31;16.30;78.50
6627;DHT22;3349;49.830;8.748;2023-07-22T00:56:58;16.30;79.80
6627;DHT22;3349;49.830;8.748;2023-07-22T00:59:25;16.30;79.00
6627;DHT22;3349;49.830;8.748;2023-07-22T01:01:54;16.20;79.10
6627;DHT22;3349;49.830;8.748;2023-07-22T01:04:21;16.20;79.10
6627;DHT22;3349;49.830;8.748;2023-07-22T01:06:49;16.10;80.10
6627;DHT22;3349;49.830;8.748;2023-07-22T01:09:18;16.10;80.10
6627;DHT22;3349;49.830;8.748;2023-07-22T01:11:45;16.00;80.10
6627;DHT22;3349;49.830;8.748;2023-07-22T01:14:12;15.90;81.10
6627;DHT22;3349;49.830;8.748;2023-07-22T01:16:39;15.80;82.90
6627;DHT22;3349;49.830;8.748;2023-07-22T01:19:07;15.70;84.20
6627;DHT22;3349;49.830;8.748;2023-07-22T01:21:36;15.60;85.80
6627;DHT22;3349;49.830;8.748;2023-07-22T01:24:05;15.40;86.80
6627;DHT22;3349;49.830;8.748;2023-07-22T01:26:32;15.40;88.30
6627;DHT22;3349;49.830;8.748;2023-07-22T01:29:03;15.30;90.10
6627;DHT22;3349;49.830;8.748;2023-07-22T01:31:33;15.20;91.00
6627;DHT22;3349;49.830;8.748;2023-07-22T01:34:00;15.20;91.70
6627;DHT22;3349;49.830;8.748;2023-07-22T01:36:27;15.20;92.20
6627;DHT22;3349;49.830;8.748;2023-07-22T01:38:54;15.20;92.70
6627;DHT22;3349;49.830;8.748;2023-07-22T01:41:22;15.20;93.10
6627;DHT22;3349;49.830;8.748;2023-07-22T01:43:49;15.20;93.70
6627;DHT22;3349;49.830;8.748;2023-07-22T01:46:16;15.20;93.70
6627;DHT22;3349;49.830;8.748;2023-07-22T01:48:42;15.30;93.90
6627;DHT22;3349;49.830;8.748;2023-07-22T01:51:09;15.30;93.50
6627;DHT22;3349;49.830;8.748;2023-07-22T01:53:36;15.30;93.60
6627;DHT22;3349;49.830;8.748;2023-07-22T01:56:03;15.30;93.00
6627;DHT22;3349;49.830;8.748;2023-07-22T01:58:32;15.30;92.80
6627;DHT22;3349;49.830;8.748;2023-07-22T02:00:59;15.30;92.70
6627;DHT22;3349;49.830;8.748;2023-07-22T02:03:25;15.20;93.00
6627;DHT22;3349;49.830;8.748;2023-07-22T02:05:52;15.20;93.00
6627;DHT22;3349;49.830;8.748;2023-07-22T02:08:19;15.20;93.00
6627;DHT22;3349;49.830;8.748;2023-07-22T02:10:46;15.20;93.00
6627;DHT22;3349;49.830;8.748;2023-07-22T02:13:13;15.20;93.00
6627;DHT22;3349;49.830;8.748;2023-07-22T02:15:42;15.10;93.00
6627;DHT22;3349;49.830;8.748;2023-07-22T02:18:09;15.10;93.10
6627;DHT22;3349;49.830;8.748;2023-07-22T02:20:36;15.00;93.60
6627;DHT22;3349;49.830;8.748;2023-07-22T02:23:02;15.00;93.90
6627;DHT22;3349;49.830;8.748;2023-07-22T02:25:29;15.00;94.00
6627;DHT22;3349;49.830;8.748;2023-07-22T02:27:56;15.00;94.20
6627;DHT22;3349;49.830;8.748;2023-07-22T02:30:23;14.90;94.10
6627;DHT22;3349;49.830;8.748;2023-07-22T02:32:51;14.90;94.40
6627;DHT22;3349;49.830;8.748;2023-07-22T02:35:18;14.80;94.60
6627;DHT22;3349;49.830;8.748;2023-07-22T02:37:44;14.70;94.70
6627;DHT22;3349;49.830;8.748;2023-07-22T02:40:11;14.70;95.20
6627;DHT22;3349;49.830;8.748;2023-07-22T02:42:39;14.60;95.40
6627;DHT22;3349;49.830;8.748;2023-07-22T02:45:07;14.70;95.80
6627;DHT22;3349;49.830;8.748;2023-07-22T02:47:34;14.60;95.60
6627;DHT22;3349;49.830;8.748;2023-07-22T02:50:03;14.50;95.80
6627;DHT22;3349;49.830;8.748;2023-07-22T02:52:30;14.50;96.00
6627;DHT22;3349;49.830;8.748;2023-07-22T02:55:08;14.50;96.40
6627;DHT22;3349;49.830;8.748;2023-07-22T02:57:36;14.50;96.40
6627;DHT22;3349;49.830;8.748;2023-07-22T03:00:04;14.40;96.50
6627;DHT22;3349;49.830;8.748;2023-07-22T03:02:33;14.40;96.60
6627;DHT22;3349;49.830;8.748;2023-07-22T03:05:00;14.30;97.00
6627;DHT22;3349;49.830;8.748;2023-07-22T03:07:29;14.30;97.50
6627;DHT22;3349;49.830;8.748;2023-07-22T03:09:56;14.30;98.20
6627;DHT22;3349;49.830;8.748;2023-07-22T03:12:22;14.30;98.20
6627;DHT22;3349;49.830;8.748;2023-07-22T03:14:49;14.30;98.20
6627;DHT22;3349;49.830;8.748;2023-07-22T03:17:17;14.30;98.20
6627;DHT22;3349;49.830;8.748;2023-07-22T03:19:44;14.20;98.20
6627;DHT22;3349;49.830;8.748;2023-07-22T03:22:13;14.20;98.60
6627;DHT22;3349;49.830;8.748;2023-07-22T03:24:42;14.10;98.40
6627;DHT22;3349;49.830;8.748;2023-07-22T03:27:10;14.10;98.70
6627;DHT22;3349;49.830;8.748;2023-07-22T03:29:37;14.10;99.10
6627;DHT22;3349;49.830;8.748;2023-07-22T03:32:07;14.10;99.30
6627;DHT22;3349;49.830;8.748;2023-07-22T03:34:35;14.10;99.30
6627;DHT22;3349;49.830;8.748;2023-07-22T03:37:01;14.10;99.70
6627;DHT22;3349;49.830;8.748;2023-07-22T03:39:28;14.10;99.70
6627;DHT22;3349;49.830;8.748;2023-07-22T03:41:56;14.10;99.80
6627;DHT22;3349;49.830;8.748;2023-07-22T03:44:23;14.10;99.90
6627;DHT22;3349;49.830;8.748;2023-07-22T03:46:51;14.10;99.90
6627;DHT22;3349;49.830;8.748;2023-07-22T03:49:18;13.80;99.80
6627;DHT22;3349;49.830;8.748;2023-07-22T03:51:44;14.10;99.90
6627;DHT22;3349;49.830;8.748;2023-07-22T03:54:11;14.20;99.90
6627;DHT22;3349;49.830;8.748;2023-07-22T03:56:40;14.20;99.90
6627;DHT22;3349;49.830;8.748;2023-07-22T03:59:08;14.20;99.90
6627;DHT22;3349;49.830;8.748;2023-07-22T04:01:35;14.20;99.90
6627;DHT22;3349;49.830;8.748;2023-07-22T04:04:02;14.20;99.90
6627;DHT22;3349;49.830;8.748;2023-07-22T04:06:29;14.20;99.90
6627;DHT22;3349;49.830;8.748;2023-07-22T04:08:55;14.10;99.80
6627;DHT22;3349;49.830;8.748;2023-07-22T04:11:22;14.10;99.90
6627;DHT22;3349;49.830;8.748;2023-07-22T04:13:49;14.10;99.90
6627;DHT22;3349;49.830;8.748;2023-07-22T04:16:17;14.10;99.90
6627;DHT22;3349;49.830;8.748;2023-07-22T04:18:43;14.00;99.90
6627;DHT22;3349;49.830;8.748;2023-07-22T04:21:10;14.00;99.90
6627;DHT22;3349;49.830;8.748;2023-07-22T04:23:37;14.00;99.90
6627;DHT22;3349;49.830;8.748;2023-07-22T04:26:04;14.00;99.90
6627;DHT22;3349;49.830;8.748;2023-07-22T04:28:32;14.00;99.90
6627;DHT22;3349;49.830;8.748;2023-07-22T04:30:59;14.00;99.90
6627;DHT22;3349;49.830;8.748;2023-07-22T04:33:27;14.00;99.90
6627;DHT22;3349;49.830;8.748;2023-07-22T04:35:56;14.00;99.90
6627;DHT22;3349;49.830;8.748;2023-07-22T04:38:24;14.00;99.90
6627;DHT22;3349;49.830;8.748;2023-07-22T04:40:51;14.00;99.90
6627;DHT22;3349;49.830;8.748;2023-07-22T04:43:17;14.00;99.90
6627;DHT22;3349;49.830;8.748;2023-07-22T04:45:44;14.10;99.90
6627;DHT22;3349;49.830;8.748;2023-07-22T04:48:13;14.10;99.90
6627;DHT22;3349;49.830;8.748;2023-07-22T04:50:42;14.10;99.90
6627;DHT22;3349;49.830;8.748;2023-07-22T04:53:10;14.10;99.90
6627;DHT22;3349;49.830;8.748;2023-07-22T04:55:38;14.20;99.90
6627;DHT22;3349;49.830;8.748;2023-07-22T04:58:05;14.20;99.90
6627;DHT22;3349;49.830;8.748;2023-07-22T05:00:32;14.20;99.90
6627;DHT22;3349;49.830;8.748;2023-07-22T05:02:59;14.30;99.90
6627;DHT22;3349;49.830;8.748;2023-07-22T05:05:26;14.50;99.90
6627;DHT22;3349;49.830;8.748;2023-07-22T05:07:54;14.60;99.90
6627;DHT22;3349;49.830;8.748;2023-07-22T05:10:22;14.70;99.80
6627;DHT22;3349;49.830;8.748;2023-07-22T05:12:49;14.80;99.90
6627;DHT22;3349;49.830;8.748;2023-07-22T05:15:15;15.00;99.60
6627;DHT22;3349;49.830;8.748;2023-07-22T05:17:42;15.10;98.90
6627;DHT22;3349;49.830;8.748;2023-07-22T05:20:09;15.20;98.00
6627;DHT22;3349;49.830;8.748;2023-07-22T05:22:38;15.20;97.60
6627;DHT22;3349;49.830;8.748;2023-07-22T05:25:07;15.40;97.80
6627;DHT22;3349;49.830;8.748;2023-07-22T05:27:35;15.50;97.20
6627;DHT22;3349;49.830;8.748;2023-07-22T05:30:02;15.50;96.20
6627;DHT22;3349;49.830;8.748;2023-07-22T05:32:29;15.50;95.80
6627;DHT22;3349;49.830;8.748;2023-07-22T05:34:56;15.60;95.20
6627;DHT22;3349;49.830;8.748;2023-07-22T05:37:23;15.60;95.60
6627;DHT22;3349;49.830;8.748;2023-07-22T05:39:50;15.60;96.00
6627;DHT22;3349;49.830;8.748;2023-07-22T05:42:18;15.60;96.70
6627;DHT22;3349;49.830;8.748;2023-07-22T05:44:46;15.60;96.60
6627;DHT22;3349;49.830;8.748;2023-07-22T05:47:12;15.60;96.20
6627;DHT22;3349;49.830;8.748;2023-07-22T05:49:39;15.70;95.20
6627;DHT22;3349;49.830;8.748;2023-07-22T05:52:06;15.80;93.30
6627;DHT22;3349;49.830;8.748;2023-07-22T05:54:33;16.00;92.80
6627;DHT22;3349;49.830;8.748;2023-07-22T05:57:00;16.10;91.60
6627;DHT22;3349;49.830;8.748;2023-07-22T05:59:28;16.30;90.50
6627;DHT22;3349;49.830;8.748;2023-07-22T06:01:54;16.50;88.10
6627;DHT22;3349;49.830;8.748;2023-07-22T06:04:21;16.60;86.50
6627;DHT22;3349;49.830;8.748;2023-07-22T06:06:48;16.70;85.20
6627;DHT22;3349;49.830;8.748;2023-07-22T06:09:15;16.80;83.50
6627;DHT22;3349;49.830;8.748;2023-07-22T06:11:42;16.90;82.00
6627;DHT22;3349;49.830;8.748;2023-07-22T06:14:08;17.00;80.70
6627;DHT22;3349;49.830;8.748;2023-07-22T06:16:36;17.10;78.80
6627;DHT22;3349;49.830;8.748;2023-07-22T06:19:03;17.30;77.30
6627;DHT22;3349;49.830;8.748;2023-07-22T06:21:30;17.40;76.80
6627;DHT22;3349;49.830;8.748;2023-07-22T06:23:57;17.60;74.00
6627;DHT22;3349;49.830;8.748;2023-07-22T06:26:23;17.70;72.70
6627;DHT22;3349;49.830;8.748;2023-07-22T06:28:50;17.80;71.40
6627;DHT22;3349;49.830;8.748;2023-07-22T06:31:17;18.00;71.80
6627;DHT22;3349;49.830;8.748;2023-07-22T06:33:45;18.10;69.80
6627;DHT22;3349;49.830;8.748;2023-07-22T06:36:12;18.20;69.40
6627;DHT22;3349;49.830;8.748;2023-07-22T06:38:39;18.30;69.60
6627;DHT22;3349;49.830;8.748;2023-07-22T06:41:05;18.50;68.50
6627;DHT22;3349;49.830;8.748;2023-07-22T06:43:32;18.50;67.20
6627;DHT22;3349;49.830;8.748;2023-07-22T06:45:59;18.60;66.30
6627;DHT22;3349;49.830;8.748;2023-07-22T06:48:26;18.70;66.70
6627;DHT22;3349;49.830;8.748;2023-07-22T06:50:54;18.70;66.30
6627;DHT22;3349;49.830;8.748;2023-07-22T06:53:21;18.80;65.00
6627;DHT22;3349;49.830;8.748;2023-07-22T06:55:51;18.70;64.50
6627;DHT22;3349;49.830;8.748;2023-07-22T06:58:18;18.70;64.00
6627;DHT22;3349;49.830;8.748;2023-07-22T07:00:45;18.70;65.10
6627;DHT22;3349;49.830;8.748;2023-07-22T07:03:12;18.60;64.40
6627;DHT22;3349;49.830;8.748;2023-07-22T07:05:39;18.70;64.50
6627;DHT22;3349;49.830;8.748;2023-07-22T07:08:08;18.70;64.50
6627;DHT22;3349;49.830;8.748;2023-07-22T07:10:37;18.70;64.50
6627;DHT22;3349;49.830;8.748;2023-07-22T07:13:04;18.80;64.60
6627;DHT22;3349;49.830;8.748;2023-07-22T07:15:31;19.00;64.50
6627;DHT22;3349;49.830;8.748;2023-07-22T07:17:58;19.10;64.90
6627;DHT22;3349;49.830;8.748;2023-07-22T07:20:24;19.20;64.00
6627;DHT22;3349;49.830;8.748;2023-07-22T07:22:51;19.20;64.00
6627;DHT22;3349;49.830;8.748;2023-07-22T07:25:19;19.30;62.40
6627;DHT22;3349;49.830;8.748;2023-07-22T07:27:46;19.20;62.80
6627;DHT22;3349;49.830;8.748;2023-07-22T07:30:13;19.40;62.00
6627;DHT22;3349;49.830;8.748;2023-07-22T07:32:40;19.60;60.00
6627;DHT22;3349;49.830;8.748;2023-07-22T07:35:07;19.90;58.60
6627;DHT22;3349;49.830;8.748;2023-07-22T07:37:34;20.20;59.00
6627;DHT22;3349;49.830;8.748;2023-07-22T07:40:01;20.30;57.10
6627;DHT22;3349;49.830;8.748;2023-07-22T07:42:30;20.40;57.20
6627;DHT22;3349;49.830;8.748;2023-07-22T07:44:57;20.40;57.10
6627;DHT22;3349;49.830;8.748;2023-07-22T07:47:24;20.40;57.20
6627;DHT22;3349;49.830;8.748;2023-07-22T07:49:50;20.40;55.60
6627;DHT22;3349;49.830;8.748;2023-07-22T07:52:17;20.60;54.30
6627;DHT22;3349;49.830;8.748;2023-07-22T07:54:44;20.70;54.30
6627;DHT22;3349;49.830;8.748;2023-07-22T07:57:10;21.00;53.10
6627;DHT22;3349;49.830;8.748;2023-07-22T07:59:38;21.30;51.30
6627;DHT22;3349;49.830;8.748;2023-07-22T08:02:06;21.50;50.10
6627;DHT22;3349;49.830;8.748;2023-07-22T08:04:35;22.00;49.30
6627;DHT22;3349;49.830;8.748;2023-07-22T08:07:02;22.40;47.10
6627;DHT22;3349;49.830;8.748;2023-07-22T08:09:30;22.90;45.70
6627;DHT22;3349;49.830;8.748;2023-07-22T08:11:56;23.70;44.00
6627;DHT22;3349;49.830;8.748;2023-07-22T08:14:24;24.60;42.00
6627;DHT22;3349;49.830;8.748;2023-07-22T08:16:52;25.30;39.20
6627;DHT22;3349;49.830;8.748;2023-07-22T08:19:18;25.50;38.10
6627;DHT22;3349;49.830;8.748;2023-07-22T08:21:45;25.00;37.80
6627;DHT22;3349;49.830;8.748;2023-07-22T08:24:12;24.70;39.00
6627;DHT22;3349;49.830;8.748;2023-07-22T08:26:39;24.50;39.60
6627;DHT22;3349;49.830;8.748;2023-07-22T08:29:06;24.60;39.00
6627;DHT22;3349;49.830;8.748;2023-07-22T08:31:33;24.80;39.20
6627;DHT22;3349;49.830;8.748;2023-07-22T08:34:03;24.80;39.20
6627;DHT22;3349;49.830;8.748;2023-07-22T08:36:30;24.60;39.20
6627;DHT22;3349;49.830;8.748;2023-07-22T08:38:57;24.90;38.70
6627;DHT22;3349;49.830;8.748;2023-07-22T08:41:24;25.70;37.30
6627;DHT22;3349;49.830;8.748;2023-07-22T08:43:51;26.40;36.50
6627;DHT22;3349;49.830;8.748;2023-07-22T08:46:22;26.70;34.60
6627;DHT22;3349;49.830;8.748;2023-07-22T08:48:53;27.20;33.80
6627;DHT22;3349;49.830;8.748;2023-07-22T08:51:22;27.20;33.80
6627;DHT22;3349;49.830;8.748;2023-07-22T08:53:50;27.40;33.90
6627;DHT22;3349;49.830;8.748;2023-07-22T08:56:18;28.00;32.10
6627;DHT22;3349;49.830;8.748;2023-07-22T08:58:46;28.20;33.00
6627;DHT22;3349;49.830;8.748;2023-07-22T09:01:14;28.80;31.30
6627;DHT22;3349;49.830;8.748;2023-07-22T09:03:41;28.70;31.60
6627;DHT22;3349;49.830;8.748;2023-07-22T09:06:09;28.40;32.80
6627;DHT22;3349;49.830;8.748;2023-07-22T09:08:38;28.50;31.70
6627;DHT22;3349;49.830;8.748;2023-07-22T09:11:06;27.80;32.10
6627;DHT22;3349;49.830;8.748;2023-07-22T09:13:34;27.50;33.00
6627;DHT22;3349;49.830;8.748;2023-07-22T09:16:03;27.40;33.00
6627;DHT22;3349;49.830;8.748;2023-07-22T09:18:32;27.50;33.70
6627;DHT22;3349;49.830;8.748;2023-07-22T09:20:59;28.20;31.60
6627;DHT22;3349;49.830;8.748;2023-07-22T09:23:33;27.80;31.00
6627;DHT22;3349;49.830;8.748;2023-07-22T09:26:10;27.30;32.10
6627;DHT22;3349;49.830;8.748;2023-07-22T09:28:55;27.30;31.40
6627;DHT22;3349;49.830;8.748;2023-07-22T09:31:23;26.80;30.00
6627;DHT22;3349;49.830;8.748;2023-07-22T09:33:50;26.40;30.70
6627;DHT22;3349;49.830;8.748;2023-07-22T09:36:19;26.50;30.80
6627;DHT22;3349;49.830;8.748;2023-07-22T09:38:59;26.90;31.10
6627;DHT22;3349;49.830;8.748;2023-07-22T09:41:29;26.80;31.40
6627;DHT22;3349;49.830;8.748;2023-07-22T09:43:56;27.00;32.00
6627;DHT22;3349;49.830;8.748;2023-07-22T09:46:31;26.80;32.70
6627;DHT22;3349;49.830;8.748;2023-07-22T09:49:02;26.60;31.80
6627;DHT22;3349;49.830;8.748;2023-07-22T09:51:33;26.60;31.30
6627;DHT22;3349;49.830;8.748;2023-07-22T09:54:01;26.40;31.40
6627;DHT22;3349;49.830;8.748;2023-07-22T09:56:30;26.30;31.60
6627;DHT22;3349;49.830;8.748;2023-07-22T09:58:58;26.60;30.50
6627;DHT22;3349;49.830;8.748;2023-07-22T10:01:26;26.50;32.10
6627;DHT22;3349;49.830;8.748;2023-07-22T10:03:54;26.50;31.50
6627;DHT22;3349;49.830;8.748;2023-07-22T10:06:22;26.40;29.70
6627;DHT22;3349;49.830;8.748;2023-07-22T10:08:50;26.50;30.20
6627;DHT22;3349;49.830;8.748;2023-07-22T10:11:18;26.20;30.50
6627;DHT22;3349;49.830;8.748;2023-07-22T10:13:47;26.00;30.40
6627;DHT22;3349;49.830;8.748;2023-07-22T10:16:15;25.80;31.10
6627;DHT22;3349;49.830;8.748;2023-07-22T10:18:42;25.80;29.80
6627;DHT22;3349;49.830;8.748;2023-07-22T10:21:10;25.60;30.10
6627;DHT22;3349;49.830;8.748;2023-07-22T10:23:38;25.60;30.90
6627;DHT22;3349;49.830;8.748;2023-07-22T10:26:05;25.20;32.10
6627;DHT22;3349;49.830;8.748;2023-07-22T10:28:32;25.00;32.60
6627;DHT22;3349;49.830;8.748;2023-07-22T10:31:01;25.30;31.90
6627;DHT22;3349;49.830;8.748;2023-07-22T10:33:28;25.70;30.70
6627;DHT22;3349;49.830;8.748;2023-07-22T10:36:05;25.60;32.10
6627;DHT22;3349;49.830;8.748;2023-07-22T10:38:33;25.10;33.40
6627;DHT22;3349;49.830;8.748;2023-07-22T10:41:00;24.50;34.00
6627;DHT22;3349;49.830;8.748;2023-07-22T10:43:30;24.20;34.90
6627;DHT22;3349;49.830;8.748;2023-07-22T10:45:58;23.80;35.30
6627;DHT22;3349;49.830;8.748;2023-07-22T10:48:27;23.40;36.50
6627;DHT22;3349;49.830;8.748;2023-07-22T10:51:05;23.30;37.10
6627;DHT22;3349;49.830;8.748;2023-07-22T10:53:32;23.40;37.50
6627;DHT22;3349;49.830;8.748;2023-07-22T10:56:07;23.70;37.50
6627;DHT22;3349;49.830;8.748;2023-07-22T10:58:59;24.20;36.80
6627;DHT22;3349;49.830;8.748;2023-07-22T11:01:35;25.10;35.60
6627;DHT22;3349;49.830;8.748;2023-07-22T11:04:05;25.50;34.60
6627;DHT22;3349;49.830;8.748;2023-07-22T11:06:33;25.60;34.60
6627;DHT22;3349;49.830;8.748;2023-07-22T11:09:00;25.60;34.70
6627;DHT22;3349;49.830;8.748;2023-07-22T11:11:35;26.30;33.90
6627;DHT22;3349;49.830;8.748;2023-07-22T11:14:16;26.30;33.80
6627;DHT22;3349;49.830;8.748;2023-07-22T11:16:45;26.20;33.90
6627;DHT22;3349;49.830;8.748;2023-07-22T11:19:14;26.00;33.50
6627;DHT22;3349;49.830;8.748;2023-07-22T11:21:42;25.90;34.20
6627;DHT22;3349;49.830;8.748;2023-07-22T11:24:09;25.70;33.50
6627;DHT22;3349;49.830;8.748;2023-07-22T11:26:37;25.70;33.70
6627;DHT22;3349;49.830;8.748;2023-07-22T11:29:05;25.60;33.80
6627;DHT22;3349;49.830;8.748;2023-07-22T11:31:32;25.30;33.40
6627;DHT22;3349;49.830;8.748;2023-07-22T11:33:58;25.10;35.60
6627;DHT22;3349;49.830;8.748;2023-07-22T11:36:27;25.00;35.60
6627;DHT22;3349;49.830;8.748;2023-07-22T11:38:53;24.90;35.50
6627;DHT22;3349;49.830;8.748;2023-07-22T11:41:21;24.70;35.30
6627;DHT22;3349;49.830;8.748;2023-07-22T11:43:48;25.10;34.90
6627;DHT22;3349;49.830;8.748;2023-07-22T11:46:15;25.40;34.70
6627;DHT22;3349;49.830;8.748;2023-07-22T11:48:49;25.80;33.60
6627;DHT22;3349;49.830;8.748;2023-07-22T11:51:17;25.80;33.70
6627;DHT22;3349;49.830;8.748;2023-07-22T11:53:47;26.10;34.10
6627;DHT22;3349;49.830;8.748;2023-07-22T11:56:18;26.00;33.70
6627;DHT22;3349;49.830;8.748;2023-07-22T11:58:49;25.70;34.70
6627;DHT22;3349;49.830;8.748;2023-07-22T12:01:15;25.60;35.30
6627;DHT22;3349;49.830;8.748;2023-07-22T12:03:42;26.30;34.60
6627;DHT22;3349;49.830;8.748;2023-07-22T12:06:09;26.60;33.60
6627;DHT22;3349;49.830;8.748;2023-07-22T12:08:42;26.70;33.40
6627;DHT22;3349;49.830;8.748;2023-07-22T12:11:16;27.60;32.10
6627;DHT22;3349;49.830;8.748;2023-07-22T12:13:43;28.80;30.00
6627;DHT22;3349;49.830;8.748;2023-07-22T12:16:12;29.70;28.70
6627;DHT22;3349;49.830;8.748;2023-07-22T12:18:43;30.20;28.30
6627;DHT22;3349;49.830;8.748;2023-07-22T12:21:10;30.60;26.70
6627;DHT22;3349;49.830;8.748;2023-07-22T12:23:38;29.70;27.20
6627;DHT22;3349;49.830;8.748;2023-07-22T12:26:04;29.30;27.70
6627;DHT22;3349;49.830;8.748;2023-07-22T12:28:33;28.70;27.40
6627;DHT22;3349;49.830;8.748;2023-07-22T12:31:00;28.40;27.80
6627;DHT22;3349;49.830;8.748;2023-07-22T12:33:27;28.30;28.50
6627;DHT22;3349;49.830;8.748;2023-07-22T12:35:54;28.20;28.50
6627;DHT22;3349;49.830;8.748;2023-07-22T12:38:20;28.10;28.70
6627;DHT22;3349;49.830;8.748;2023-07-22T12:40:47;27.80;28.80
6627;DHT22;3349;49.830;8.748;2023-07-22T12:43:14;27.20;29.50
6627;DHT22;3349;49.830;8.748;2023-07-22T12:45:42;27.10;30.00
6627;DHT22;3349;49.830;8.748;2023-07-22T12:48:09;26.80;30.30
6627;DHT22;3349;49.830;8.748;2023-07-22T12:50:36;26.60;30.80
6627;DHT22;3349;49.830;8.748;2023-07-22T12:53:03;26.60;30.60
6627;DHT22;3349;49.830;8.748;2023-07-22T12:55:29;26.30;30.90
6627;DHT22;3349;49.830;8.748;2023-07-22T12:57:56;26.20;31.60
6627;DHT22;3349;49.830;8.748;2023-07-22T13:00:23;25.70;32.20
6627;DHT22;3349;49.830;8.748;2023-07-22T13:02:51;25.70;32.40
6627;DHT22;3349;49.830;8.748;2023-07-22T13:05:18;25.70;32.50
6627;DHT22;3349;49.830;8.748;2023-07-22T13:07:45;25.70;32.40
6627;DHT22;3349;49.830;8.748;2023-07-22T13:10:12;26.40;30.40
6627;DHT22;3349;49.830;8.748;2023-07-22T13:12:42;27.10;29.30
6627;DHT22;3349;49.830;8.748;2023-07-22T13:15:09;27.00;28.80
6627;DHT22;3349;49.830;8.748;2023-07-22T13:17:36;26.90;28.40
6627;DHT22;3349;49.830;8.748;2023-07-22T13:20:05;26.60;28.20
6627;DHT22;3349;49.830;8.748;2023-07-22T13:22:34;26.40;28.80
6627;DHT22;3349;49.830;8.748;2023-07-22T13:25:01;26.80;28.40
6627;DHT22;3349;49.830;8.748;2023-07-22T13:27:28;26.90;28.40
6627;DHT22;3349;49.830;8.748;2023-07-22T13:29:55;26.60;28.20
6627;DHT22;3349;49.830;8.748;2023-07-22T13:32:22;26.40;28.50
6627;DHT22;3349;49.830;8.748;2023-07-22T13:34:49;26.30;28.10
6627;DHT22;3349;49.830;8.748;2023-07-22T13:37:17;26.30;29.20
6627;DHT22;3349;49.830;8.748;2023-07-22T13:39:44;26.30;28.10
6627;DHT22;3349;49.830;8.748;2023-07-22T13:42:11;26.10;28.30
6627;DHT22;3349;49.830;8.748;2023-07-22T13:44:38;26.00;28.40
6627;DHT22;3349;49.830;8.748;2023-07-22T13:47:04;26.00;28.50
6627;DHT22;3349;49.830;8.748;2023-07-22T13:49:31;26.00;28.40
6627;DHT22;3349;49.830;8.748;2023-07-22T13:51:58;26.00;27.90
6627;DHT22;3349;49.830;8.748;2023-07-22T13:54:26;25.70;28.00
6627;DHT22;3349;49.830;8.748;2023-07-22T13:56:52;25.80;28.50
6627;DHT22;3349;49.830;8.748;2023-07-22T13:59:19;25.60;28.80
6627;DHT22;3349;49.830;8.748;2023-07-22T14:01:46;25.50;29.00
6627;DHT22;3349;49.830;8.748;2023-07-22T14:04:12;25.60;29.10
6627;DHT22;3349;49.830;8.748;2023-07-22T14:06:39;25.70;29.00
6627;DHT22;3349;49.830;8.748;2023-07-22T14:09:06;25.70;29.40
6627;DHT22;3349;49.830;8.748;2023-07-22T14:11:34;25.70;29.00
6627;DHT22;3349;49.830;8.748;2023-07-22T14:14:00;25.80;28.80
6627;DHT22;3349;49.830;8.748;2023-07-22T14:16:27;26.00;29.00
6627;DHT22;3349;49.830;8.748;2023-07-22T14:18:54;26.00;27.90
6627;DHT22;3349;49.830;8.748;2023-07-22T14:21:21;25.90;28.20
6627;DHT22;3349;49.830;8.748;2023-07-22T14:23:47;25.80;28.40
6627;DHT22;3349;49.830;8.748;2023-07-22T14:26:14;25.80;28.30
6627;DHT22;3349;49.830;8.748;2023-07-22T14:28:42;25.80;28.40
6627;DHT22;3349;49.830;8.748;2023-07-22T14:31:09;26.00;28.00
6627;DHT22;3349;49.830;8.748;2023-07-22T14:33:35;26.20;28.00
6627;DHT22;3349;49.830;8.748;2023-07-22T14:36:02;26.30;27.50
6627;DHT22;3349;49.830;8.748;2023-07-22T14:38:29;26.60;27.00
6627;DHT22;3349;49.830;8.748;2023-07-22T14:40:56;26.60;26.60
6627;DHT22;3349;49.830;8.748;2023-07-22T14:43:23;26.40;26.70
6627;DHT22;3349;49.830;8.748;2023-07-22T14:45:52;26.30;26.90
6627;DHT22;3349;49.830;8.748;2023-07-22T14:48:19;26.30;27.20
6627;DHT22;3349;49.830;8.748;2023-07-22T14:50:45;26.80;26.80
6627;DHT22;3349;49.830;8.748;2023-07-22T14:53:12;27.20;26.20
6627;DHT22;3349;49.830;8.748;2023-07-22T14:55:39;27.50;26.30
6627;DHT22;3349;49.830;8.748;2023-07-22T14:58:06;27.30;26.20
6627;DHT22;3349;49.830;8.748;2023-07-22T15:00:33;27.40;26.30
6627;DHT22;3349;49.830;8.748;2023-07-22T15:03:01;27.70;25.90
6627;DHT22;3349;49.830;8.748;2023-07-22T15:05:27;27.80;25.40
6627;DHT22;3349;49.830;8.748;2023-07-22T15:11:16;28.60;24.90
6627;DHT22;3349;49.830;8.748;2023-07-22T15:13:43;28.50;24.60
6627;DHT22;3349;49.830;8.748;2023-07-22T15:16:10;28.80;24.70
6627;DHT22;3349;49.830;8.748;2023-07-22T15:18:38;28.60;24.40
6627;DHT22;3349;49.830;8.748;2023-07-22T15:21:04;28.60;24.90
6627;DHT22;3349;49.830;8.748;2023-07-22T15:23:31;28.80;24.40
6627;DHT22;3349;49.830;8.748;2023-07-22T15:25:58;29.10;24.20
6627;DHT22;3349;49.830;8.748;2023-07-22T15:28:26;29.20;23.80
6627;DHT22;3349;49.830;8.748;2023-07-22T15:30:53;29.20;23.90
6627;DHT22;3349;49.830;8.748;2023-07-22T15:33:20;29.00;23.80
6627;DHT22;3349;49.830;8.748;2023-07-22T15:35:49;29.30;23.20
6627;DHT22;3349;49.830;8.748;2023-07-22T15:38:15;29.00;22.30
6627;DHT22;3349;49.830;8.748;2023-07-22T15:40:42;28.80;22.70
6627;DHT22;3349;49.830;8.748;2023-07-22T15:43:10;28.70;23.20
6627;DHT22;3349;49.830;8.748;2023-07-22T15:45:36;28.50;23.90
6627;DHT22;3349;49.830;8.748;2023-07-22T15:48:04;28.00;24.00
6627;DHT22;3349;49.830;8.748;2023-07-22T15:50:31;27.80;24.30
6627;DHT22;3349;49.830;8.748;2023-07-22T15:52:59;28.10;24.50
6627;DHT22;3349;49.830;8.748;2023-07-22T15:55:26;28.20;24.10
6627;DHT22;3349;49.830;8.748;2023-07-22T15:57:53;27.90;23.80
6627;DHT22;3349;49.830;8.748;2023-07-22T16:00:20;27.80;23.90
6627;DHT22;3349;49.830;8.748;2023-07-22T16:02:47;27.70;24.00
6627;DHT22;3349;49.830;8.748;2023-07-22T16:05:14;27.70;24.50
6627;DHT22;3349;49.830;8.748;2023-07-22T16:07:41;27.80;24.40